Time;durP1;ratioP1;P1;durP2;ratioP2;P2;SDS_P1;SDS_P2;PMS_P1;PMS_P2;Temp;Humidity;BMP_temperature;BMP_pressure;BME280_temperature;BME280_humidity;BME280_pressure;Samples;Min_cycle;Max_cycle;Signal;HPM_P1;HPM_P2
2023/04/12 00:02:09;;;;;;;;;22.50;21.00;;;;;13.10;60.95;98180.06;6023993;29;96272;-60
2023/04/12 00:05:13;;;;;;;;;21.20;19.20;;;;;13.14;60.42;98173.13;6010037;29;96913;-59
2023/04/12 00:08:16;;;;;;;;;23.00;20.00;;;;;13.04;60.50;98171.09;6022054;29;96043;-60
2023/04/12 00:11:20;;;;;;;;;22.00;21.00;;;;;12.96;60.58;98168.84;6022071;29;96397;-59
2023/04/12 00:14:23;;;;;;;;;24.40;21.40;;;;;12.93;60.81;98166.66;6021443;29;96316;-60
2023/04/12 00:17:28;;;;;;;;;23.20;21.00;;;;;12.92;60.50;98165.00;6021908;29;96279;-59
2023/04/12 00:20:32;;;;;;;;;28.00;25.00;;;;;12.94;60.25;98157.47;6022000;29;96328;-60
2023/04/12 00:23:36;;;;;;;;;24.00;21.00;;;;;12.87;60.35;98154.94;6021705;29;97601;-59
2023/04/12 00:26:40;;;;;;;;;22.00;21.00;;;;;12.81;60.57;98153.25;6020519;29;97010;-59
2023/04/12 00:29:43;;;;;;;;;25.40;24.00;;;;;12.56;60.58;98129.44;6021648;29;96325;-59
2023/04/12 00:32:48;;;;;;;;;25.60;24.60;;;;;12.77;60.89;98154.84;6022630;29;96877;-60
2023/04/12 00:35:51;;;;;;;;;23.00;22.00;;;;;12.69;60.88;98163.41;6005600;29;98416;-59
2023/04/12 00:38:55;;;;;;;;;23.20;21.20;;;;;12.60;60.97;98154.09;6022735;29;96365;-60
2023/04/12 00:42:00;;;;;;;;;23.20;22.60;;;;;12.54;61.06;98149.69;6021646;29;96237;-59
2023/04/12 00:45:03;;;;;;;;;22.50;21.00;;;;;12.43;61.60;98150.63;6020930;29;96259;-60
2023/04/12 00:48:08;;;;;;;;;26.00;22.00;;;;;12.42;61.82;98147.13;6020916;29;96200;-60
2023/04/12 00:51:11;;;;;;;;;25.00;21.50;;;;;12.46;61.56;98148.25;6019940;29;96250;-59
2023/04/12 00:54:16;;;;;;;;;23.00;19.00;;;;;12.48;61.55;98159.63;6021959;29;96905;-59
2023/04/12 00:57:21;;;;;;;;;24.00;23.00;;;;;12.44;61.38;98149.56;6033699;29;96402;-59
2023/04/12 01:00:24;;;;;;;;;25.60;23.20;;;;;12.40;61.38;98148.44;6023255;29;96371;-59
2023/04/12 01:03:29;;;;;;;;;22.00;20.60;;;;;12.33;61.83;98166.72;6025107;29;96274;-59
2023/04/12 01:07:00;;;;;;;;;28.00;23.40;;;;;12.38;61.59;98161.38;6010677;29;97478;-60
2023/04/12 01:10:09;;;;;;;;;24.00;21.00;;;;;12.38;61.69;98159.50;6026911;29;96113;-60
2023/04/12 01:13:27;;;;;;;;;20.60;20.00;;;;;12.40;61.55;98164.66;6027578;29;96226;-59
2023/04/12 01:16:39;;;;;;;;;23.60;20.60;;;;;12.40;61.26;98164.66;6025601;29;97453;-59
2023/04/12 01:19:56;;;;;;;;;20.00;19.00;;;;;12.41;61.73;98169.00;6014414;29;96365;-59
2023/04/12 01:23:16;;;;;;;;;21.00;20.00;;;;;12.35;61.72;98162.72;5996139;29;97411;-59
2023/04/12 01:26:33;;;;;;;;;22.50;20.50;;;;;12.31;62.26;98163.47;6042960;29;96081;-59
2023/04/12 01:29:42;;;;;;;;;24.40;22.00;;;;;12.32;62.02;98165.91;6025854;29;96381;-59
2023/04/12 01:32:50;;;;;;;;;24.50;22.00;;;;;12.31;62.09;98163.47;6025703;29;96311;-59
2023/04/12 01:35:55;;;;;;;;;21.80;20.00;;;;;12.26;62.24;98156.13;6025537;29;96785;-60
2023/04/12 01:38:59;;;;;;;;;21.50;19.50;;;;;12.22;61.89;98154.94;6024542;29;96226;-59
2023/04/12 01:42:02;;;;;;;;;21.00;19.00;;;;;12.17;62.12;98159.50;6025105;29;96446;-60
2023/04/12 01:45:09;;;;;;;;;21.00;20.00;;;;;12.15;62.45;98159.75;6024285;29;96252;-60
2023/04/12 01:48:12;;;;;;;;;21.60;20.60;;;;;12.08;62.60;98159.91;6026559;29;96350;-59
2023/04/12 01:51:24;;;;;;;;;23.00;21.00;;;;;12.16;62.27;98164.09;6013356;29;96406;-60
2023/04/12 01:54:34;;;;;;;;;23.00;21.00;;;;;12.19;62.42;98160.03;6025665;29;96543;-59
2023/04/12 01:57:41;;;;;;;;;21.00;19.00;;;;;12.22;62.15;98160.34;6024210;29;98419;-59
2023/04/12 02:00:46;;;;;;;;;20.40;18.40;;;;;12.30;62.05;98159.13;6023867;29;97639;-60
2023/04/12 02:03:51;;;;;;;;;21.40;20.00;;;;;12.24;62.01;98152.84;6007382;29;96532;-60
2023/04/12 02:06:54;;;;;;;;;22.00;20.60;;;;;12.34;61.51;98160.25;6023872;29;97062;-59
2023/04/12 02:09:58;;;;;;;;;24.00;21.40;;;;;12.27;61.58;98155.03;5992817;29;96859;-59
2023/04/12 02:13:02;;;;;;;;;20.60;19.00;;;;;12.24;61.15;98155.53;6023976;29;97435;-60
2023/04/12 02:16:09;;;;;;;;;21.00;19.00;;;;;12.31;60.89;98160.75;6024157;29;96251;-59
2023/04/12 02:19:13;;;;;;;;;22.00;19.60;;;;;12.20;61.01;98150.88;6024567;29;96213;-59
2023/04/12 02:22:17;;;;;;;;;20.00;18.60;;;;;12.22;60.58;98163.06;6039430;29;96327;-59
2023/04/12 02:25:21;;;;;;;;;22.60;19.00;;;;;12.18;60.70;98169.22;6021757;29;96590;-59
2023/04/12 02:28:24;;;;;;;;;23.00;20.00;;;;;12.09;60.99;98163.44;6029228;29;96867;-60
2023/04/12 02:31:30;;;;;;;;;21.00;19.60;;;;;12.08;61.18;98168.00;6028516;29;96817;-59
2023/04/12 02:34:35;;;;;;;;;21.40;20.00;;;;;12.11;60.84;98166.72;6027263;29;96263;-59
2023/04/12 02:37:53;;;;;;;;;18.40;17.00;;;;;12.09;60.67;98166.94;6016268;29;97856;-60
2023/04/12 02:41:00;;;;;;;;;17.00;16.00;;;;;12.04;60.38;98171.47;6022403;29;96264;-60
2023/04/12 02:44:05;;;;;;;;;15.00;14.00;;;;;12.14;60.18;98164.31;6022457;29;96298;-60
2023/04/12 02:47:10;;;;;;;;;16.20;15.80;;;;;12.15;60.40;98163.25;6036068;29;96565;-60
2023/04/12 02:50:16;;;;;;;;;16.60;16.00;;;;;12.14;60.06;98158.09;6028531;29;96287;-60
2023/04/12 02:53:30;;;;;;;;;18.00;16.50;;;;;12.11;59.89;98161.31;6028103;29;96267;-60
2023/04/12 02:56:54;;;;;;;;;17.00;16.80;;;;;12.17;59.91;98165.69;6023466;29;96737;-59
2023/04/12 03:00:11;;;;;;;;;16.20;15.80;;;;;12.13;59.47;98165.38;6019519;29;96366;-60
2023/04/12 03:03:22;;;;;;;;;15.50;15.00;;;;;12.16;59.37;98158.69;6018703;29;96413;-59
2023/04/12 03:06:30;;;;;;;;;16.00;15.00;;;;;12.23;59.35;98163.88;6026943;29;96910;-60
2023/04/12 03:09:37;;;;;;;;;16.75;14.00;;;;;12.26;59.15;98164.22;6010102;29;96686;-59
2023/04/12 03:12:41;;;;;;;;;14.00;13.00;;;;;12.13;58.95;98167.25;6046371;29;96249;-59
2023/04/12 03:15:56;;;;;;;;;16.80;14.80;;;;;12.18;59.11;98164.63;6034106;29;96245;-59
2023/04/12 03:19:08;;;;;;;;;13.80;12.80;;;;;12.13;59.23;98165.38;6006910;29;96343;-60
2023/04/12 03:22:11;;;;;;;;;13.00;12.00;;;;;12.17;59.21;98164.91;6029549;29;96488;-59
2023/04/12 03:25:19;;;;;;;;;13.75;12.00;;;;;12.20;58.86;98164.41;6036428;29;96291;-59
2023/04/12 03:28:29;;;;;;;;;14.50;13.50;;;;;12.21;58.73;98160.63;6022955;29;96329;-60
2023/04/12 03:31:34;;;;;;;;;16.20;14.00;;;;;12.13;58.86;98159.16;6006281;29;96862;-60
2023/04/12 03:34:44;;;;;;;;;15.00;14.20;;;;;12.08;58.97;98164.47;6000418;29;96681;-60
2023/04/12 03:37:50;;;;;;;;;14.00;13.00;;;;;12.11;58.75;98156.72;6022486;29;96428;-59
2023/04/12 03:40:53;;;;;;;;;18.00;17.00;;;;;12.10;58.72;98165.88;6006424;29;96532;-59
2023/04/12 03:44:03;;;;;;;;;15.60;14.60;;;;;12.07;58.81;98165.56;6012184;29;96242;-60
2023/04/12 03:47:10;;;;;;;;;17.25;15.25;;;;;12.00;58.78;98164.91;6022721;29;96250;-60
2023/04/12 03:50:15;;;;;;;;;17.00;14.00;;;;;12.04;58.87;98169.56;6031946;29;97515;-60
2023/04/12 03:53:24;;;;;;;;;16.80;16.00;;;;;12.02;58.79;98162.81;6020122;29;96309;-60
2023/04/12 03:56:27;;;;;;;;;15.50;14.25;;;;;12.00;58.78;98171.16;5996717;29;96667;-60
2023/04/12 03:59:33;;;;;;;;;17.00;15.80;;;;;11.90;59.20;98165.59;6020992;23;96294;-60
2023/04/12 04:02:37;;;;;;;;;16.00;16.00;;;;;11.94;58.79;98174.00;5996766;29;96496;-60
2023/04/12 04:05:45;;;;;;;;;21.00;20.00;;;;;12.01;58.70;98170.09;5984911;29;97427;-60
2023/04/12 04:08:51;;;;;;;;;14.60;14.00;;;;;12.08;58.53;98169.88;5992180;29;96722;-60
2023/04/12 04:11:55;;;;;;;;;18.60;16.40;;;;;11.95;58.11;98160.25;5996702;29;96347;-61
2023/04/12 04:14:59;;;;;;;;;16.60;14.60;;;;;12.02;58.03;98160.88;5980659;29;96515;-61
2023/04/12 04:18:08;;;;;;;;;14.75;14.50;;;;;11.97;58.15;98171.63;5983048;29;96619;-61
2023/04/12 04:21:14;;;;;;;;;15.40;15.00;;;;;11.90;58.20;98164.78;5988030;29;97189;-60
2023/04/12 04:24:21;;;;;;;;;14.00;13.00;;;;;11.82;58.19;98163.31;5967654;29;97455;-61
2023/04/12 04:27:29;;;;;;;;;18.00;16.50;;;;;11.80;58.27;98178.13;5988084;29;96695;-60
2023/04/12 04:30:37;;;;;;;;;15.00;13.00;;;;;11.76;57.90;98182.38;5980925;29;98056;-61
2023/04/12 04:33:43;;;;;;;;;11.50;11.50;;;;;11.76;58.17;98182.38;5977903;29;97767;-60
2023/04/12 04:36:48;;;;;;;;;14.00;13.40;;;;;11.82;57.46;98189.50;5998767;29;96257;-61
2023/04/12 04:40:06;;;;;;;;;17.00;16.00;;;;;11.90;57.77;98198.00;6014151;28;96407;-60
2023/04/12 04:43:12;;;;;;;;;14.50;13.50;;;;;11.93;57.59;98186.69;5992079;29;96481;-60
2023/04/12 04:46:20;;;;;;;;;13.20;12.60;;;;;11.90;57.80;98181.78;6009778;29;96841;-60
2023/04/12 04:49:24;;;;;;;;;14.00;13.00;;;;;11.92;57.80;98182.38;5995087;29;96715;-60
2023/04/12 04:52:29;;;;;;;;;16.00;15.00;;;;;11.90;58.06;98195.31;5995653;29;96876;-60
2023/04/12 04:55:37;;;;;;;;;14.00;14.00;;;;;11.95;58.00;98189.97;5995347;29;96406;-61
2023/04/12 04:58:40;;;;;;;;;16.00;14.40;;;;;11.95;58.27;98189.16;6002025;28;97304;-60
2023/04/12 05:01:45;;;;;;;;;16.00;15.00;;;;;12.02;58.22;98193.31;6002389;29;96899;-60
2023/04/12 05:04:51;;;;;;;;;18.33;16.67;;;;;12.00;58.33;98198.16;6002667;29;96971;-60
2023/04/12 05:07:58;;;;;;;;;12.00;12.00;;;;;11.98;57.94;98205.69;5999366;29;96339;-60
2023/04/12 05:11:05;;;;;;;;;13.80;12.80;;;;;12.03;57.85;98191.44;6011041;29;96740;-60
2023/04/12 05:14:09;;;;;;;;;12.00;11.00;;;;;12.03;57.67;98181.44;5998381;29;96740;-60
2023/04/12 05:17:15;;;;;;;;;11.80;11.00;;;;;12.00;57.57;98190.06;6003789;29;97063;-60
2023/04/12 05:20:19;;;;;;;;;12.20;11.80;;;;;11.98;57.96;98185.94;5982191;29;97566;-60
2023/04/12 05:23:23;;;;;;;;;11.00;10.00;;;;;12.04;57.72;98188.50;5997911;29;96815;-60
2023/04/12 05:26:27;;;;;;;;;14.00;12.40;;;;;12.05;57.80;98190.13;5977522;29;96471;-60
2023/04/12 05:29:32;;;;;;;;;12.50;11.50;;;;;11.95;57.61;98199.97;5991919;29;96471;-60
2023/04/12 05:32:36;;;;;;;;;12.40;12.00;;;;;11.90;57.58;98200.72;5989917;29;96648;-60
2023/04/12 05:35:39;;;;;;;;;12.00;11.50;;;;;11.87;57.68;98200.38;6000479;29;96673;-60
2023/04/12 05:38:44;;;;;;;;;11.00;10.80;;;;;11.88;57.80;98210.94;5998209;29;96635;-60
2023/04/12 05:41:48;;;;;;;;;13.00;11.40;;;;;11.91;57.07;98218.56;6003540;29;96890;-60
2023/04/12 05:44:51;;;;;;;;;11.20;10.80;;;;;11.89;57.49;98212.56;6005433;29;96400;-60
2023/04/12 05:47:56;;;;;;;;;14.20;13.00;;;;;11.93;57.25;98212.88;6006332;29;96893;-60
2023/04/12 05:51:00;;;;;;;;;15.00;13.00;;;;;11.90;57.22;98208.81;6007754;29;96460;-60
2023/04/12 05:54:06;;;;;;;;;14.40;13.40;;;;;11.87;57.51;98205.78;6008132;29;96248;-60
2023/04/12 05:57:11;;;;;;;;;14.00;13.20;;;;;11.86;57.52;98215.78;6008443;29;96338;-60
2023/04/12 06:00:17;;;;;;;;;15.00;14.50;;;;;11.73;57.39;98195.31;6024227;29;96236;-60
2023/04/12 06:03:22;;;;;;;;;15.00;14.00;;;;;11.82;57.41;98194.91;6023814;29;96337;-60
2023/04/12 06:06:29;;;;;;;;;13.25;11.50;;;;;11.91;57.53;98209.63;6005326;29;96487;-60
2023/04/12 06:09:35;;;;;;;;;15.00;14.00;;;;;11.90;57.69;98213.38;6007668;29;96844;-60
2023/04/12 06:12:38;;;;;;;;;15.00;14.00;;;;;11.88;57.20;98202.81;5990346;29;96521;-60
2023/04/12 06:15:42;;;;;;;;;13.00;13.00;;;;;11.86;57.39;98202.28;6006604;29;96298;-60
2023/04/12 06:18:46;;;;;;;;;15.40;14.00;;;;;11.90;57.27;98203.41;6006125;29;96440;-60
2023/04/12 06:21:49;;;;;;;;;16.00;14.60;;;;;11.89;56.92;98199.06;5990683;29;96676;-60
2023/04/12 06:24:54;;;;;;;;;13.00;12.00;;;;;11.94;57.05;98199.13;6006253;29;96398;-60
2023/04/12 06:27:59;;;;;;;;;13.40;12.40;;;;;11.94;56.97;98192.91;6007121;29;97177;-60
2023/04/12 06:31:03;;;;;;;;;16.20;15.80;;;;;12.07;56.89;98201.50;5999491;29;96617;-61
2023/04/12 06:34:11;;;;;;;;;15.00;14.00;;;;;12.12;56.59;98193.47;5999924;29;96328;-60
2023/04/12 06:37:15;;;;;;;;;16.00;13.20;;;;;12.20;55.60;98186.81;5999193;29;96335;-60
2023/04/12 06:40:20;;;;;;;;;20.00;17.00;;;;;12.30;55.89;98191.56;6001151;29;98408;-60
2023/04/12 06:43:23;;;;;;;;;15.00;14.00;;;;;12.38;55.32;98186.53;6023471;29;96289;-61
2023/04/12 06:46:27;;;;;;;;;17.40;16.40;;;;;12.36;54.73;98193.28;6021114;29;97209;-60
2023/04/12 06:49:31;;;;;;;;;17.40;16.00;;;;;12.32;55.05;98190.22;5990463;29;96674;-61
2023/04/12 06:52:34;;;;;;;;;17.40;15.80;;;;;12.37;54.80;98195.69;6023009;29;96336;-60
2023/04/12 06:55:39;;;;;;;;;16.40;16.20;;;;;12.39;55.14;98190.06;6006492;29;96643;-60
2023/04/12 06:58:42;;;;;;;;;18.00;17.00;;;;;12.44;54.22;98184.72;6006450;28;98457;-60
2023/04/12 07:01:45;;;;;;;;;16.20;15.20;;;;;12.41;54.29;98187.94;6046450;28;96875;-60
2023/04/12 07:04:52;;;;;;;;;17.20;15.60;;;;;12.39;54.36;98185.47;6009212;29;96762;-60
2023/04/12 07:07:55;;;;;;;;;16.00;14.60;;;;;12.49;54.15;98185.59;6005469;29;98970;-60
2023/04/12 07:11:00;;;;;;;;;18.00;16.00;;;;;12.59;53.76;98185.72;6005223;29;96743;-60
2023/04/12 07:14:22;;;;;;;;;18.00;16.20;;;;;12.74;53.87;98182.41;6022610;29;97045;-61
2023/04/12 07:17:26;;;;;;;;;17.20;16.60;;;;;12.96;54.01;98188.59;6022561;29;96275;-60
2023/04/12 07:20:29;;;;;;;;;17.40;15.40;;;;;13.12;52.37;98191.50;6022474;29;96303;-60
2023/04/12 07:23:33;;;;;;;;;17.25;15.75;;;;;13.11;51.53;98192.53;6005502;29;96232;-60
2023/04/12 07:26:37;;;;;;;;;16.60;15.60;;;;;13.23;52.33;98195.94;6005565;29;97836;-60
2023/04/12 07:29:41;;;;;;;;;17.25;16.25;;;;;13.27;51.69;98191.66;6022345;29;96346;-60
2023/04/12 07:32:44;;;;;;;;;15.80;14.20;;;;;13.34;51.94;98203.91;6022462;29;96276;-60
2023/04/12 07:35:48;;;;;;;;;19.00;18.00;;;;;13.42;52.04;98198.03;6004511;29;97062;-60
2023/04/12 07:38:54;;;;;;;;;17.00;16.50;;;;;13.48;51.23;98195.38;6022536;29;97038;-60
2023/04/12 07:42:00;;;;;;;;;20.00;17.20;;;;;13.37;50.94;98203.41;6022020;29;96545;-60
2023/04/12 07:45:03;;;;;;;;;18.00;16.25;;;;;13.35;50.74;98208.25;6021951;29;96285;-61
2023/04/12 07:48:07;;;;;;;;;19.00;16.00;;;;;13.32;51.24;98200.66;6021601;29;96553;-60
2023/04/12 07:51:10;;;;;;;;;13.50;13.00;;;;;13.22;51.13;98197.00;6021965;29;96263;-61
2023/04/12 07:54:14;;;;;;;;;19.00;16.00;;;;;13.14;51.23;98194.78;6021567;29;96993;-61
2023/04/12 07:57:18;;;;;;;;;17.00;14.40;;;;;13.25;51.09;98193.78;6021498;29;96498;-60
2023/04/12 08:00:22;;;;;;;;;20.00;18.00;;;;;13.30;50.91;98191.13;6021134;29;96552;-60
2023/04/12 08:03:25;;;;;;;;;18.00;16.00;;;;;13.21;50.71;98185.38;6003633;29;96398;-60
2023/04/12 08:06:30;;;;;;;;;14.60;12.80;;;;;13.16;50.33;98184.50;6004307;29;96500;-60
2023/04/12 08:09:36;;;;;;;;;19.00;17.00;;;;;13.14;51.05;98171.25;6003924;29;98377;-60
2023/04/12 08:12:41;;;;;;;;;15.75;15.75;;;;;13.28;50.86;98196.00;6021049;29;96360;-60
2023/04/12 08:15:46;;;;;;;;;21.00;19.00;;;;;13.38;50.35;98180.69;6021375;29;96096;-60
2023/04/12 08:18:49;;;;;;;;;19.60;18.60;;;;;13.53;50.24;98190.81;6021181;29;96252;-60
2023/04/12 08:21:53;;;;;;;;;20.00;20.00;;;;;13.73;50.14;98190.97;6020687;29;96323;-60
2023/04/12 08:24:56;;;;;;;;;17.00;15.00;;;;;13.81;49.74;98190.50;6020801;29;96325;-60
2023/04/12 08:28:01;;;;;;;;;17.00;16.00;;;;;13.80;49.45;98186.16;6003558;29;96679;-60
2023/04/12 08:31:05;;;;;;;;;22.00;21.20;;;;;13.87;49.00;98184.06;6020236;29;96265;-60
2023/04/12 08:34:09;;;;;;;;;20.00;19.60;;;;;13.98;49.17;98187.63;6020320;29;96080;-60
2023/04/12 08:37:12;;;;;;;;;23.00;21.60;;;;;14.13;48.96;98171.47;6020736;29;96319;-60
2023/04/12 08:40:16;;;;;;;;;20.25;19.25;;;;;14.20;47.97;98168.56;6002690;29;96671;-60
2023/04/12 08:43:22;;;;;;;;;21.00;20.00;;;;;14.45;47.92;98179.56;6003034;29;98478;-60
2023/04/12 08:46:26;;;;;;;;;24.50;22.50;;;;;14.76;48.05;98177.78;6020620;29;96404;-61
2023/04/12 08:49:31;;;;;;;;;23.40;23.00;;;;;14.96;46.60;98172.44;6020116;29;96303;-61
2023/04/12 08:52:36;;;;;;;;;20.60;19.40;;;;;15.18;46.54;98169.50;6003148;29;96317;-61
2023/04/12 08:55:39;;;;;;;;;20.00;19.40;;;;;15.41;45.51;98165.47;5993108;29;98960;-60
2023/04/12 08:58:47;;;;;;;;;17.50;17.00;;;;;15.67;45.29;98161.72;6002767;29;96486;-60
2023/04/12 09:01:52;;;;;;;;;17.40;17.00;;;;;15.95;44.82;98163.84;6018336;29;96797;-60
2023/04/12 09:04:56;;;;;;;;;20.00;18.00;;;;;16.13;43.62;98161.63;6012395;29;96584;-60
2023/04/12 09:08:00;;;;;;;;;16.20;15.80;;;;;16.33;43.11;98158.88;6015650;29;96319;-60
2023/04/12 09:11:21;;;;;;;;;19.00;19.00;;;;;16.70;43.42;98158.53;6002303;29;96757;-60
2023/04/12 09:14:26;;;;;;;;;16.75;14.75;;;;;17.04;42.00;98158.63;6002973;29;96641;-60
2023/04/12 09:17:31;;;;;;;;;18.20;16.60;;;;;17.33;41.05;98145.91;6020315;29;97344;-61
2023/04/12 09:20:34;;;;;;;;;16.80;15.00;;;;;17.79;40.40;98151.03;5983743;29;99284;-60
2023/04/12 09:23:38;;;;;;;;;17.00;16.00;;;;;17.85;40.39;98153.41;5998990;29;96456;-60
2023/04/12 09:26:41;;;;;;;;;14.60;12.60;;;;;17.62;39.68;98143.28;6023988;29;96425;-61
2023/04/12 09:29:50;;;;;;;;;15.00;14.00;;;;;18.00;39.67;98141.56;6023530;29;96262;-61
2023/04/12 09:32:54;;;;;;;;;12.50;10.50;;;;;18.75;38.28;98142.66;6006812;29;99578;-61
2023/04/12 09:36:01;;;;;;;;;16.00;14.00;;;;;19.73;37.75;98147.25;6023441;29;96251;-60
2023/04/12 09:39:05;;;;;;;;;14.00;13.80;;;;;20.19;35.33;98138.22;6023614;29;96835;-61
2023/04/12 09:42:10;;;;;;;;;15.60;14.00;;;;;20.91;34.36;98138.47;6023168;28;96822;-61
2023/04/12 09:45:37;;;;;;;;;11.20;9.60;;;;;21.52;31.96;98122.28;6042393;28;96410;-61
2023/04/12 09:48:48;;;;;;;;;10.20;10.20;;;;;22.00;31.40;98099.69;6018655;29;96697;-61
2023/04/12 09:51:52;;;;;;;;;9.75;9.00;;;;;22.73;30.04;98115.50;6006387;29;96735;-61
2023/04/12 09:54:56;;;;;;;;;9.00;9.00;;;;;23.06;29.30;98107.69;6007608;29;96546;-61
2023/04/12 09:58:06;;;;;;;;;8.25;8.00;;;;;23.13;29.13;98108.00;6023089;28;96333;-61
2023/04/12 10:01:11;;;;;;;;;8.25;8.00;;;;;22.76;29.27;98109.41;6028578;28;96222;-61
2023/04/12 10:04:14;;;;;;;;;11.00;11.00;;;;;22.57;29.16;98103.34;6005427;29;96263;-61
2023/04/12 10:07:19;;;;;;;;;14.40;12.40;;;;;22.73;29.93;98096.28;6016519;29;97006;-61
2023/04/12 10:10:23;;;;;;;;;10.40;10.40;;;;;22.45;29.48;98103.13;6006588;28;96918;-61
2023/04/12 10:13:28;;;;;;;;;13.00;11.00;;;;;21.56;30.66;98090.34;6023698;29;96275;-61
2023/04/12 10:16:33;;;;;;;;;12.00;10.75;;;;;21.08;31.63;98095.59;6023221;29;96463;-61
2023/04/12 10:19:39;;;;;;;;;11.25;10.25;;;;;20.56;32.40;98086.06;6027907;28;96700;-61
2023/04/12 10:22:44;;;;;;;;;13.00;13.00;;;;;20.05;33.08;98088.16;6018422;28;97517;-61
2023/04/12 10:25:48;;;;;;;;;12.40;12.00;;;;;19.80;33.51;98092.16;6027161;28;96332;-61
2023/04/12 10:29:22;;;;;;;;;12.50;10.50;;;;;19.44;34.08;98078.31;6020850;29;96478;-61
2023/04/12 10:32:27;;;;;;;;;13.00;11.60;;;;;19.17;35.14;98087.16;6021999;29;96614;-61
2023/04/12 10:35:50;;;;;;;;;15.00;14.00;;;;;18.85;35.76;98074.25;6006474;29;96383;-60
2023/04/12 10:39:09;;;;;;;;;14.00;13.00;;;;;18.71;35.71;98083.47;6002797;29;98795;-61
2023/04/12 10:42:17;;;;;;;;;15.00;13.00;;;;;18.59;36.07;98081.16;6020233;29;96278;-60
2023/04/12 10:45:37;;;;;;;;;10.00;10.00;;;;;18.46;36.83;98081.84;6021811;29;96488;-61
2023/04/12 10:48:52;;;;;;;;;12.50;12.00;;;;;18.35;36.45;98069.44;6022628;29;96741;-61
2023/04/12 10:52:13;;;;;;;;;11.00;11.00;;;;;18.26;36.42;98068.44;6005580;29;96691;-60
2023/04/12 10:55:31;;;;;;;;;11.60;11.00;;;;;18.22;36.69;98064.69;6021161;29;96372;-61
2023/04/12 10:58:59;;;;;;;;;9.00;8.00;;;;;18.10;36.90;98062.34;6020087;29;96447;-61
2023/04/12 11:02:11;;;;;;;;;12.60;11.60;;;;;18.07;36.79;98065.66;5988993;29;96704;-60
2023/04/12 11:05:20;;;;;;;;;13.60;13.60;;;;;18.00;36.52;98057.81;6002771;29;96785;-60
2023/04/12 11:08:27;;;;;;;;;10.00;10.00;;;;;18.00;37.15;98070.66;5986856;29;99096;-60
2023/04/12 11:11:51;;;;;;;;;14.00;14.00;;;;;17.88;36.62;98070.25;6012372;29;96860;-61
2023/04/12 11:15:00;;;;;;;;;14.00;13.00;;;;;17.75;37.51;98069.81;6022351;29;96255;-60
2023/04/12 11:18:22;;;;;;;;;12.20;11.60;;;;;17.78;37.14;98060.25;5986562;29;96888;-60
2023/04/12 11:21:28;;;;;;;;;14.00;14.00;;;;;17.76;37.16;98059.72;6005316;29;97311;-61
2023/04/12 11:24:31;;;;;;;;;12.00;12.00;;;;;17.77;36.87;98057.81;6021879;28;96572;-60
2023/04/12 11:27:36;;;;;;;;;14.00;12.00;;;;;17.77;36.75;98053.16;6000528;29;96325;-60
2023/04/12 11:30:49;;;;;;;;;14.00;12.20;;;;;17.68;36.83;98050.28;6017680;28;96768;-60
2023/04/12 11:33:52;;;;;;;;;13.00;12.60;;;;;17.69;36.24;98046.41;5997028;29;99343;-60
2023/04/12 11:36:58;;;;;;;;;13.40;12.00;;;;;17.73;36.87;98046.69;6023921;29;96228;-60
2023/04/12 11:40:05;;;;;;;;;12.00;12.00;;;;;17.78;37.31;98046.63;6023049;29;96362;-60
2023/04/12 11:43:08;;;;;;;;;13.60;13.40;;;;;17.78;36.66;98034.91;6025023;29;96277;-61
2023/04/12 11:46:12;;;;;;;;;12.00;11.00;;;;;17.82;36.22;98034.03;6015781;29;96327;-60
2023/04/12 11:49:16;;;;;;;;;9.00;9.00;;;;;17.86;36.56;98028.81;6027813;28;96987;-60
2023/04/12 11:52:22;;;;;;;;;12.00;12.00;;;;;18.07;36.16;98044.66;6013475;29;96359;-60
2023/04/12 11:55:25;;;;;;;;;11.00;10.00;;;;;18.16;35.63;98034.72;5986739;29;96314;-60
2023/04/12 11:58:29;;;;;;;;;8.80;8.80;;;;;18.26;35.06;98035.72;6015760;28;96931;-60
2023/04/12 12:01:34;;;;;;;;;10.50;9.75;;;;;18.33;35.26;98030.69;6024312;28;96481;-60
2023/04/12 12:04:40;;;;;;;;;11.00;10.00;;;;;18.41;35.77;98021.88;6024435;29;96319;-60
2023/04/12 12:07:45;;;;;;;;;9.50;9.00;;;;;18.35;36.01;98004.75;6031790;28;96383;-61
2023/04/12 12:10:49;;;;;;;;;11.00;11.00;;;;;18.47;34.90;98029.69;6028691;28;96424;-60
2023/04/12 12:14:09;;;;;;;;;11.40;11.40;;;;;18.55;34.09;98020.88;6010684;29;96469;-60
2023/04/12 12:17:15;;;;;;;;;9.00;8.60;;;;;18.60;33.82;98022.72;6016460;29;96356;-60
2023/04/12 12:20:23;;;;;;;;;11.00;10.75;;;;;18.52;33.92;98001.53;6022964;29;96818;-60
2023/04/12 12:23:32;;;;;;;;;10.60;10.60;;;;;18.64;34.13;98007.38;6029303;29;96414;-60
2023/04/12 12:26:36;;;;;;;;;11.00;11.00;;;;;18.76;34.17;98010.50;6029473;29;96763;-60
2023/04/12 12:29:39;;;;;;;;;9.75;9.75;;;;;18.92;34.18;98006.41;6029561;29;96304;-60
2023/04/12 12:32:43;;;;;;;;;11.20;11.20;;;;;19.04;33.98;97998.56;6020287;29;96531;-60
2023/04/12 12:35:47;;;;;;;;;12.00;12.00;;;;;19.29;34.35;97997.34;6019604;29;97877;-60
2023/04/12 12:38:53;;;;;;;;;12.00;12.00;;;;;19.49;33.90;97984.44;6016434;29;96741;-60
2023/04/12 12:41:56;;;;;;;;;11.00;11.00;;;;;19.55;32.83;97984.03;6033570;29;96385;-60
2023/04/12 12:45:00;;;;;;;;;14.00;14.00;;;;;19.64;32.79;97978.72;6035215;28;97380;-60
2023/04/12 12:48:04;;;;;;;;;15.00;14.40;;;;;19.56;32.22;97977.47;6009289;29;97099;-61
2023/04/12 12:51:08;;;;;;;;;9.20;9.20;;;;;19.29;32.61;97971.94;6030678;28;96481;-60
2023/04/12 12:54:13;;;;;;;;;12.00;12.00;;;;;19.13;32.79;97978.75;6031270;28;96486;-60
2023/04/12 12:57:27;;;;;;;;;12.00;11.00;;;;;18.95;33.50;97974.97;6037108;29;96334;-60
2023/04/12 13:00:30;;;;;;;;;12.00;10.00;;;;;18.96;33.35;97971.13;6034945;29;96265;-61
2023/04/12 13:03:34;;;;;;;;;11.00;9.00;;;;;18.95;33.46;97964.03;6028302;29;96574;-60
2023/04/12 13:06:38;;;;;;;;;9.00;8.00;;;;;19.00;33.54;97961.22;6029308;29;96254;-60
2023/04/12 13:09:42;;;;;;;;;12.00;11.60;;;;;19.10;33.55;97957.50;6021058;29;96829;-60
2023/04/12 13:12:46;;;;;;;;;8.80;8.80;;;;;19.19;33.60;97945.59;6017314;29;96459;-60
2023/04/12 13:15:51;;;;;;;;;11.40;10.60;;;;;19.22;33.15;97953.19;6022515;29;96272;-60
2023/04/12 13:18:55;;;;;;;;;10.40;10.00;;;;;19.02;33.01;97951.59;6030678;29;96300;-60
2023/04/12 13:21:59;;;;;;;;;11.50;11.00;;;;;19.10;33.53;97939.19;6014202;29;96375;-59
2023/04/12 13:25:04;;;;;;;;;9.00;8.00;;;;;19.16;33.66;97945.38;6034747;29;96863;-60
2023/04/12 13:28:08;;;;;;;;;11.00;10.25;;;;;19.13;33.52;97943.25;6038026;28;96355;-60
2023/04/12 13:31:11;;;;;;;;;12.20;11.60;;;;;19.08;32.74;97938.69;6015769;28;98421;-60
2023/04/12 13:34:15;;;;;;;;;9.60;9.00;;;;;18.97;33.14;97939.94;6045764;28;96364;-60
2023/04/12 13:37:18;;;;;;;;;9.60;8.60;;;;;18.88;33.28;97942.56;6007899;29;98390;-60
2023/04/12 13:40:23;;;;;;;;;10.00;9.00;;;;;18.88;33.37;97937.09;6029671;29;96353;-60
2023/04/12 13:43:26;;;;;;;;;9.00;8.00;;;;;18.63;32.73;97933.97;6024290;29;96603;-60
2023/04/12 13:46:30;;;;;;;;;9.40;9.40;;;;;18.34;33.02;97928.63;6035885;29;96316;-60
2023/04/12 13:49:34;;;;;;;;;8.00;8.00;;;;;18.26;32.99;97932.84;6031782;29;96902;-60
2023/04/12 13:52:37;;;;;;;;;7.00;7.00;;;;;18.20;33.93;97931.28;6035306;29;96380;-60
2023/04/12 13:55:41;;;;;;;;;7.60;7.60;;;;;18.21;33.43;97930.19;6001271;29;96692;-59
2023/04/12 13:58:45;;;;;;;;;10.50;10.00;;;;;18.13;33.57;97934.38;6032263;29;96295;-60
2023/04/12 14:01:48;;;;;;;;;8.60;8.00;;;;;18.07;33.64;97932.03;6031150;29;96255;-59
2023/04/12 14:04:53;;;;;;;;;9.75;8.00;;;;;18.03;33.90;97931.78;6027730;29;96843;-60
2023/04/12 14:07:57;;;;;;;;;9.67;8.33;;;;;17.93;33.28;97923.75;6035240;28;96386;-59
2023/04/12 14:11:02;;;;;;;;;6.80;6.80;;;;;17.88;34.17;97920.28;6024567;28;96343;-60
2023/04/12 14:14:05;;;;;;;;;10.00;9.60;;;;;17.66;36.25;97924.34;6037366;28;96411;-60
2023/04/12 14:17:09;;;;;;;;;11.00;9.25;;;;;17.82;36.12;97919.53;6012195;29;96249;-60
2023/04/12 14:20:12;;;;;;;;;11.00;10.00;;;;;17.80;36.15;97924.44;6024547;29;96312;-60